Time;durP1;ratioP1;P1;durP2;ratioP2;P2;SDS_P1;SDS_P2;PMS_P1;PMS_P2;Temp;Humidity;BMP_temperature;BMP_pressure;BME280_temperature;BME280_humidity;BME280_pressure;Samples;Min_cycle;Max_cycle;Signal;HPM_P1;HPM_P2
2024/02/03 00:00:21;;;;;;;311.00;80.87;;;0.50;99.90;2.70;97310.00;;;;4960069;28;20436;-87
2024/02/03 00:03:10;;;;;;;294.97;77.07;;;0.50;99.90;1.80;97305.00;;;;4950295;28;20495;-87
2024/02/03 00:05:59;;;;;;;279.77;70.37;;;0.40;99.90;2.50;97306.00;;;;4943788;28;20437;-87
2024/02/03 00:08:48;;;;;;;277.00;67.50;;;0.40;99.90;2.70;97306.00;;;;4950336;28;20558;-87
2024/02/03 00:11:37;;;;;;;271.80;71.33;;;0.40;99.90;2.90;97297.00;;;;4948323;28;20421;-87
2024/02/03 00:14:28;;;;;;;284.30;68.40;;;0.50;99.90;2.50;97297.00;;;;4947924;28;20435;-87
2024/02/03 00:17:17;;;;;;;299.47;75.33;;;1.60;99.90;2.60;97288.00;;;;4943739;28;20432;-86
2024/02/03 00:20:08;;;;;;;289.00;69.20;;;0.50;99.90;2.80;97284.00;;;;4941551;28;20965;-87
2024/02/03 00:22:57;;;;;;;300.73;81.17;;;0.50;99.90;2.80;97272.00;;;;4947326;28;20456;-87
2024/02/03 00:25:46;;;;;;;285.87;69.10;;;0.50;99.90;2.20;97261.00;;;;4946612;28;20436;-89
2024/02/03 00:28:35;;;;;;;290.63;69.13;;;0.40;99.90;2.10;97253.00;;;;4949235;28;20459;-88
2024/02/03 00:31:25;;;;;;;294.17;77.60;;;0.30;99.90;2.40;97261.00;;;;4945336;28;20543;-89
2024/02/03 00:34:14;;;;;;;293.57;73.23;;;0.30;99.90;1.30;97262.00;;;;4950847;29;20440;-89
2024/02/03 00:37:04;;;;;;;287.80;70.30;;;0.20;99.90;2.10;97267.00;;;;4939937;28;20445;-88
2024/02/03 00:39:53;;;;;;;261.73;74.00;;;0.10;99.90;2.30;97264.00;;;;4943424;28;20425;-89
2024/02/03 00:42:42;;;;;;;275.27;78.33;;;0.10;99.90;1.30;97269.00;;;;4942550;28;20460;-88
2024/02/03 00:45:31;;;;;;;272.83;74.40;;;0.00;99.90;1.50;97244.00;;;;4948260;28;20946;-87
2024/02/03 00:48:22;;;;;;;286.60;81.07;;;-0.10;99.90;2.20;97248.00;;;;4952753;28;20784;-87
2024/02/03 00:51:12;;;;;;;288.23;74.23;;;0.00;99.90;2.50;97257.00;;;;4947366;28;20474;-85
2024/02/03 00:54:01;;;;;;;287.87;70.27;;;0.10;99.90;2.00;97258.00;;;;4953926;28;21143;-87
2024/02/03 00:56:50;;;;;;;288.60;70.67;;;0.10;99.90;2.20;97244.00;;;;4952440;28;20431;-85
2024/02/03 00:59:39;;;;;;;293.43;66.80;;;0.10;99.90;2.50;97253.00;;;;4947692;28;20440;-87
2024/02/03 01:02:28;;;;;;;298.50;71.77;;;0.10;99.90;2.30;97239.00;;;;4943118;28;20838;-88
2024/02/03 01:05:18;;;;;;;306.40;74.03;;;0.20;99.90;2.30;97253.00;;;;4942939;28;20444;-87
2024/02/03 01:08:08;;;;;;;308.57;72.87;;;0.20;99.90;2.40;97232.00;;;;4944998;28;20433;-88
2024/02/03 01:10:57;;;;;;;302.30;71.27;;;0.20;99.90;2.50;97263.00;;;;4935025;29;20468;-89
2024/02/03 01:13:46;;;;;;;296.13;67.63;;;0.20;99.90;2.50;97248.00;;;;4947405;28;20455;-87
2024/02/03 01:16:35;;;;;;;287.10;71.33;;;0.20;99.90;2.00;97236.00;;;;4937877;28;20459;-87
2024/02/03 01:19:24;;;;;;;288.43;71.33;;;0.20;99.90;2.40;97239.00;;;;4948665;28;20440;-87
2024/02/03 01:22:14;;;;;;;299.53;74.23;;;0.20;99.90;2.70;97225.00;;;;4939837;28;20594;-86
2024/02/03 01:25:03;;;;;;;292.93;69.87;;;0.30;99.90;2.70;97229.00;;;;4940281;28;20987;-86
2024/02/03 01:27:52;;;;;;;297.10;70.80;;;0.40;99.90;2.90;97237.00;;;;4942371;28;20443;-87
2024/02/03 01:30:41;;;;;;;291.67;70.83;;;0.50;99.90;2.90;97240.00;;;;4946519;28;20465;-87
2024/02/03 01:33:31;;;;;;;296.00;71.53;;;0.50;99.90;2.50;97228.00;;;;4937843;28;21027;-86
2024/02/03 01:36:21;;;;;;;298.37;73.07;;;0.50;99.90;2.70;97235.00;;;;4951137;28;21013;-87
2024/02/03 01:39:11;;;;;;;303.10;77.50;;;0.40;99.90;2.60;97238.00;;;;4948791;29;20436;-87
2024/02/03 01:42:00;;;;;;;295.93;76.00;;;0.30;99.90;2.50;97235.00;;;;4939258;29;20439;-88
2024/02/03 01:44:49;;;;;;;297.40;73.57;;;0.40;99.90;2.20;97225.00;;;;4944372;28;20433;-87
2024/02/03 01:47:38;;;;;;;295.43;71.93;;;0.30;99.90;2.50;97236.00;;;;4949097;28;20428;-88
2024/02/03 01:50:29;;;;;;;302.73;74.07;;;0.30;99.90;2.50;97233.00;;;;4942431;28;20538;-87
2024/02/03 01:53:19;;;;;;;305.80;75.27;;;0.30;99.90;2.50;97233.00;;;;4939483;28;20453;-87
2024/02/03 01:56:10;;;;;;;303.67;71.13;;;0.30;99.90;2.60;97235.00;;;;4942655;28;20440;-87
2024/02/03 01:58:59;;;;;;;304.07;73.53;;;0.30;99.90;2.60;97248.00;;;;4936645;28;20804;-87
2024/02/03 02:01:49;;;;;;;305.30;70.90;;;0.30;99.90;1.80;97233.00;;;;4932710;28;20436;-86
2024/02/03 02:04:38;;;;;;;298.77;69.13;;;0.20;99.90;2.00;97213.00;;;;4952678;28;20474;-88
2024/02/03 02:07:27;;;;;;;300.47;70.50;;;0.10;99.90;2.40;97229.00;;;;4970750;28;20428;-88
2024/02/03 02:10:16;;;;;;;312.93;77.20;;;0.10;99.90;1.80;97229.00;;;;4959645;28;20480;-88
2024/02/03 02:13:06;;;;;;;295.80;78.33;;;0.10;99.90;2.20;97228.00;;;;4953662;28;20459;-89
2024/02/03 02:15:55;;;;;;;295.77;71.23;;;0.10;99.90;2.10;97219.00;;;;4949535;29;20447;-88
2024/02/03 02:18:44;;;;;;;301.07;75.60;;;0.10;99.90;2.50;97220.00;;;;4951193;28;20508;-87
2024/02/03 02:21:35;;;;;;;303.70;73.33;;;0.10;99.90;2.30;97216.00;;;;4950841;28;20439;-88
2024/02/03 02:24:23;;;;;;;306.77;70.60;;;0.10;99.90;1.90;97205.00;;;;4949063;28;20451;-88
2024/02/03 02:27:12;;;;;;;310.07;74.00;;;0.10;99.90;2.20;97206.00;;;;4947697;28;20447;-88
2024/02/03 02:30:01;;;;;;;306.87;71.50;;;0.10;99.90;2.40;97228.00;;;;4949420;28;20444;-88
2024/02/03 02:32:51;;;;;;;307.93;80.83;;;0.10;99.90;2.30;97215.00;;;;4942311;28;20456;-87
2024/02/03 02:35:40;;;;;;;304.63;70.80;;;0.10;99.90;2.30;97204.00;;;;4959215;28;20829;-88
2024/02/03 02:38:30;;;;;;;311.03;76.43;;;0.10;99.90;2.30;97218.00;;;;4953876;28;20425;-87
2024/02/03 02:41:19;;;;;;;311.20;78.83;;;0.00;99.90;2.10;97214.00;;;;4958823;28;20440;-89
2024/02/03 02:44:08;;;;;;;302.63;71.67;;;0.00;99.90;2.20;97221.00;;;;4952789;28;20460;-88
2024/02/03 02:46:57;;;;;;;302.20;70.00;;;0.00;99.90;1.90;97211.00;;;;4950400;29;20443;-87
2024/02/03 02:49:46;;;;;;;306.30;71.33;;;-0.10;99.90;2.10;97224.00;;;;4954145;28;20426;-88
2024/02/03 02:52:35;;;;;;;305.20;68.53;;;-0.10;99.90;2.00;97213.00;;;;4955000;28;20494;-87
2024/02/03 02:55:25;;;;;;;313.93;77.83;;;-0.10;99.90;2.10;97219.00;;;;4946623;28;20444;-88
2024/02/03 02:58:14;;;;;;;311.03;75.10;;;-0.20;99.90;2.00;97225.00;;;;4957450;28;20459;-88
2024/02/03 03:01:03;;;;;;;304.43;84.93;;;-0.20;99.90;1.80;97225.00;;;;4960294;28;20443;-89
2024/02/03 03:03:55;;;;;;;304.00;70.20;;;-0.20;99.90;2.00;97223.00;;;;4953336;28;20461;-89
2024/02/03 03:06:44;;;;;;;304.17;68.30;;;-0.20;99.90;2.00;97230.00;;;;4952847;28;20447;-89
2024/02/03 03:09:33;;;;;;;301.63;69.90;;;-0.30;99.90;1.80;97226.00;;;;4952341;28;20449;-88
2024/02/03 03:12:23;;;;;;;314.37;76.43;;;-0.20;99.90;1.60;97221.00;;;;4957300;28;20476;-88
2024/02/03 03:15:12;;;;;;;311.13;73.97;;;-0.40;99.90;1.90;97221.00;;;;4964946;28;20443;-88
2024/02/03 03:18:01;;;;;;;307.23;72.40;;;-0.30;99.90;1.60;97222.00;;;;4952141;28;20459;-87
2024/02/03 03:20:50;;;;;;;21.37;19.37;;;-0.40;99.90;1.60;97226.00;;;;4946007;28;20436;-87
2024/02/03 03:23:40;;;;;;;14.10;12.60;;;-0.40;99.90;1.80;97236.00;;;;4948726;28;20960;-87
2024/02/03 03:26:29;;;;;;;20.17;16.07;;;-0.40;99.90;1.80;97234.00;;;;4940928;28;20464;-88
2024/02/03 03:29:19;;;;;;;23.23;14.57;;;-0.40;99.90;1.70;97217.00;;;;4943542;28;20432;-89
2024/02/03 03:32:08;;;;;;;15.50;12.30;;;-0.40;99.90;1.80;97241.00;;;;4950935;28;20888;-87
2024/02/03 03:34:57;;;;;;;12.93;10.87;;;;;1.40;97237.00;;;;4953514;28;20432;-88
2024/02/03 03:37:46;;;;;;;13.60;10.17;;;-0.50;99.90;1.60;97227.00;;;;4946627;28;20811;-89
2024/02/03 03:40:35;;;;;;;14.20;12.30;;;-0.50;99.90;1.60;97247.00;;;;4935815;28;20451;-88
2024/02/03 03:43:24;;;;;;;23.40;15.67;;;-0.50;99.90;1.60;97245.00;;;;4942879;28;20895;-87
2024/02/03 03:46:14;;;;;;;39.73;22.73;;;-0.50;99.90;1.80;97261.00;;;;4946599;28;20961;-87
2024/02/03 03:49:03;;;;;;;19.30;16.07;;;-0.50;99.90;1.40;97262.00;;;;4947672;29;20440;-88
2024/02/03 03:51:52;;;;;;;31.40;21.07;;;-0.70;99.90;1.00;97240.00;;;;4940881;28;20487;-87
2024/02/03 03:54:41;;;;;;;302.53;69.73;;;-0.70;99.90;1.60;97254.00;;;;4937846;28;20847;-87
2024/02/03 03:57:31;;;;;;;304.10;70.83;;;-0.60;99.90;1.80;97261.00;;;;4951392;28;20424;-87
2024/02/03 04:00:22;;;;;;;311.67;75.77;;;-0.60;99.90;1.90;97270.00;;;;4939906;28;20498;-88
2024/02/03 04:03:12;;;;;;;300.57;67.73;;;-0.50;99.90;2.10;97268.00;;;;4937091;28;20670;-87
2024/02/03 04:06:01;;;;;;;302.83;69.70;;;-0.40;99.90;1.10;97257.00;;;;4945230;28;20436;-86
2024/02/03 04:08:50;;;;;;;301.30;68.80;;;-0.50;99.90;1.50;97246.00;;;;4952791;28;20444;-87
2024/02/03 04:11:39;;;;;;;298.13;65.93;;;-0.50;99.90;1.90;97266.00;;;;4941527;28;21024;-88
2024/02/03 04:14:28;;;;;;;305.10;69.47;;;-0.50;99.90;1.80;97273.00;;;;4944445;28;20435;-88
2024/02/03 04:17:17;;;;;;;308.03;74.27;;;-0.40;99.90;1.90;97270.00;;;;4941381;28;20986;-88
2024/02/03 04:20:09;;;;;;;299.53;69.20;;;-0.40;99.90;1.50;97263.00;;;;4941618;28;20459;-88
2024/02/03 04:22:58;;;;;;;308.67;73.60;;;-0.40;99.90;1.80;97265.00;;;;4967983;28;20506;-87
2024/02/03 04:25:47;;;;;;;298.33;66.27;;;-0.40;99.90;2.00;97266.00;;;;4981440;28;20447;-88
2024/02/03 04:28:36;;;;;;;302.37;70.60;;;-0.40;99.90;1.80;97272.00;;;;4964207;28;20456;-88
2024/02/03 04:31:25;;;;;;;311.53;73.47;;;-0.30;99.90;2.00;97276.00;;;;4965026;28;21066;-89
2024/02/03 04:34:18;;;;;;;313.07;80.47;;;-0.30;99.90;1.90;97266.00;;;;4960837;28;20443;-89
2024/02/03 04:37:08;;;;;;;297.73;99.63;;;-0.30;99.90;1.80;97260.00;;;;4957463;28;20468;-88
2024/02/03 04:39:59;;;;;;;265.33;70.57;;;-0.40;99.90;2.10;97264.00;;;;4954957;29;20441;-89
2024/02/03 04:42:48;;;;;;;263.57;71.80;;;-0.30;99.90;2.30;97261.00;;;;4949734;28;20457;-89
2024/02/03 04:45:37;;;;;;;282.77;82.17;;;-0.10;99.90;2.20;97270.00;;;;4946217;28;20440;-88
2024/02/03 04:48:26;;;;;;;300.33;82.17;;;-0.10;99.90;2.10;97263.00;;;;4955336;28;20462;-89
2024/02/03 04:51:15;;;;;;;297.27;88.87;;;-0.10;99.90;2.40;97254.00;;;;4952365;28;20455;-88
2024/02/03 04:54:06;;;;;;;294.83;74.43;;;0.00;99.90;1.90;97247.00;;;;4958378;28;20838;-88
2024/02/03 04:56:55;;;;;;;287.73;72.70;;;0.00;99.90;1.60;97239.00;;;;4946883;28;20595;-89
2024/02/03 04:59:44;;;;;;;280.07;81.17;;;-0.10;99.90;2.20;97255.00;;;;4953063;28;20424;-87
2024/02/03 05:02:33;;;;;;;291.23;72.07;;;0.00;99.90;2.60;97272.00;;;;4952407;29;21162;-88
2024/02/03 05:05:22;;;;;;;312.97;94.50;;;0.10;99.90;2.40;97260.00;;;;4949849;28;20440;-88
2024/02/03 05:08:11;;;;;;;308.67;91.83;;;0.10;99.90;2.00;97253.00;;;;4958823;28;20443;-87
2024/02/03 05:11:01;;;;;;;293.10;83.40;;;0.00;99.90;2.20;97243.00;;;;4948839;28;20427;-88
2024/02/03 05:13:51;;;;;;;304.30;96.63;;;0.00;99.90;2.50;97262.00;;;;4946444;28;20826;-88
2024/02/03 05:16:40;;;;;;;300.80;101.33;;;0.10;99.90;2.40;97258.00;;;;4957314;29;21208;-88
2024/02/03 05:19:29;;;;;;;290.10;71.67;;;0.10;99.90;2.40;97260.00;;;;4947922;28;20445;-89
2024/02/03 05:22:18;;;;;;;307.77;79.13;;;0.00;99.90;2.40;97256.00;;;;4956406;28;20440;-88
2024/02/03 05:25:08;;;;;;;293.90;72.27;;;0.10;99.90;2.30;97257.00;;;;4948480;28;20463;-89
2024/02/03 05:27:58;;;;;;;299.67;76.07;;;0.10;99.90;2.40;97254.00;;;;4952640;28;20432;-89
2024/02/03 05:30:47;;;;;;;293.97;70.17;;;0.10;99.90;2.60;97269.00;;;;4954191;28;20453;-88
2024/02/03 05:33:36;;;;;;;295.60;70.47;;;0.10;99.90;2.50;97264.00;;;;4950060;28;20476;-89
2024/02/03 05:36:25;;;;;;;307.63;80.97;;;0.20;99.90;2.80;97256.00;;;;4958688;28;20797;-88
2024/02/03 05:39:14;;;;;;;308.83;85.17;;;0.30;99.90;3.00;97261.00;;;;4951298;28;20439;-89
2024/02/03 05:42:03;;;;;;;306.37;81.13;;;0.40;99.90;3.00;97240.00;;;;4956964;28;20960;-89
2024/02/03 05:44:53;;;;;;;296.90;77.27;;;0.50;99.90;2.90;97247.00;;;;4959369;28;20423;-87
2024/02/03 05:47:42;;;;;;;304.60;73.30;;;0.60;99.90;2.50;97248.00;;;;4943085;28;20432;-87
2024/02/03 05:50:31;;;;;;;310.97;72.93;;;0.50;99.90;3.00;97257.00;;;;4939718;28;20969;-87
2024/02/03 05:53:20;;;;;;;317.43;79.70;;;0.50;99.90;2.50;97270.00;;;;4950139;28;20484;-88
2024/02/03 05:56:09;;;;;;;309.27;73.47;;;0.50;99.90;2.90;97262.00;;;;4950181;28;20435;-88
2024/02/03 05:58:58;;;;;;;311.80;74.10;;;0.60;99.90;3.40;97270.00;;;;4941682;28;20535;-88
2024/02/03 06:01:53;;;;;;;308.37;70.50;;;0.70;99.90;3.20;97263.00;;;;4942380;29;20428;-86
2024/02/03 06:04:42;;;;;;;307.47;69.40;;;0.80;99.90;3.20;97264.00;;;;4944193;28;20432;-85
2024/02/03 06:07:31;;;;;;;310.50;71.33;;;0.80;99.90;2.90;97267.00;;;;4942777;28;20463;-88
2024/02/03 06:10:20;;;;;;;321.63;84.33;;;0.90;99.90;2.90;97256.00;;;;4947225;28;20446;-88
2024/02/03 06:13:08;;;;;;;313.33;75.73;;;0.80;99.90;3.60;97264.00;;;;4941615;28;20471;-86
2024/02/03 06:15:57;;;;;;;312.03;72.43;;;0.90;99.90;3.80;97267.00;;;;4946194;28;20825;-87
2024/02/03 06:18:48;;;;;;;311.97;75.60;;;1.10;99.90;3.90;97265.00;;;;4940966;28;20429;-86
2024/02/03 06:21:36;;;;;;;311.53;74.13;;;1.30;99.90;3.90;97275.00;;;;4946632;29;20477;-86
2024/02/03 06:24:25;;;;;;;319.27;78.70;;;1.40;99.90;3.80;97276.00;;;;4938193;28;20433;-88
2024/02/03 06:27:14;;;;;;;309.73;73.77;;;1.40;99.90;3.60;97274.00;;;;4941322;28;20440;-88
2024/02/03 06:30:03;;;;;;;311.20;71.73;;;1.30;99.90;3.60;97273.00;;;;4942111;28;20441;-86
2024/02/03 06:32:55;;;;;;;339.97;91.90;;;1.30;99.90;2.90;97258.00;;;;4946182;28;20469;-87
2024/02/03 06:35:45;;;;;;;308.43;71.80;;;1.10;99.90;3.30;97275.00;;;;4904842;28;20893;-87
2024/02/03 06:38:34;;;;;;;315.73;79.53;;;1.10;99.90;3.30;97279.00;;;;4942199;28;21100;-86
2024/02/03 06:41:23;;;;;;;319.73;85.10;;;1.00;99.90;3.20;97297.00;;;;4939815;28;20443;-86
2024/02/03 06:44:15;;;;;;;414.83;158.30;;;1.00;99.90;3.10;97284.00;;;;4901802;28;20444;-87
2024/02/03 06:47:04;;;;;;;424.23;173.83;;;0.90;99.90;2.80;97288.00;;;;4890869;28;20437;-87
2024/02/03 06:49:54;;;;;;;406.10;153.57;;;0.90;99.90;3.10;97284.00;;;;4893179;28;20473;-88
2024/02/03 06:52:44;;;;;;;422.83;170.33;;;0.80;99.90;3.10;97290.00;;;;4898450;28;20503;-88
2024/02/03 06:55:36;;;;;;;409.40;155.67;;;0.90;99.90;2.80;97298.00;;;;4905361;28;21797;-88
2024/02/03 06:58:25;;;;;;;434.87;191.87;;;0.80;99.90;3.10;97289.00;;;;4895994;28;20443;-87
2024/02/03 07:01:15;;;;;;;394.87;156.43;;;0.80;99.90;3.10;97287.00;;;;4886434;28;20467;-87
2024/02/03 07:04:04;;;;;;;423.40;173.63;;;0.90;99.90;3.40;97295.00;;;;4893398;28;20472;-88
2024/02/03 07:06:54;;;;;;;404.53;155.60;;;0.90;99.90;3.50;97296.00;;;;4888565;28;20807;-88
2024/02/03 07:09:45;;;;;;;405.40;158.03;;;0.50;99.90;3.60;97296.00;;;;4889642;28;20441;-87
2024/02/03 07:12:34;;;;;;;422.57;183.97;;;1.10;99.90;4.00;97301.00;;;;4891119;28;20591;-87
2024/02/03 07:15:23;;;;;;;420.43;176.20;;;1.20;99.90;3.20;97303.00;;;;4891856;28;20885;-87
2024/02/03 07:18:14;;;;;;;386.43;133.83;;;1.20;99.90;3.70;97285.00;;;;4885645;28;20440;-88
2024/02/03 07:21:04;;;;;;;426.43;171.63;;;1.20;99.90;3.90;97308.00;;;;4891941;28;20470;-87
2024/02/03 07:23:56;;;;;;;423.97;167.33;;;1.40;99.90;3.30;97309.00;;;;4889401;28;20474;-88
2024/02/03 07:26:46;;;;;;;426.77;172.17;;;1.20;99.90;3.90;97302.00;;;;4886439;28;20432;-87
2024/02/03 07:29:35;;;;;;;355.93;126.53;;;1.50;99.90;4.30;97308.00;;;;4885738;28;20453;-89
2024/02/03 07:32:24;;;;;;;411.47;154.97;;;1.70;99.90;4.10;97310.00;;;;4888788;28;20452;-87
2024/02/03 07:35:14;;;;;;;392.40;138.37;;;1.80;99.90;4.60;97303.00;;;;4890511;28;20440;-88
2024/02/03 07:38:03;;;;;;;434.47;181.23;;;2.00;99.90;5.30;97309.00;;;;4887317;28;20441;-88
2024/02/03 07:40:52;;;;;;;417.00;166.80;;;2.30;99.90;4.30;97306.00;;;;4886821;28;20472;-87
2024/02/03 07:43:43;;;;;;;431.37;211.90;;;2.40;99.90;5.20;97313.00;;;;4892996;28;21033;-86
2024/02/03 07:46:32;;;;;;;356.15;118.68;;;2.50;99.90;5.30;97309.00;;;;4946508;28;20505;-88
2024/02/03 07:49:21;;;;;;;342.30;93.43;;;2.70;99.90;5.20;97318.00;;;;4956036;28;20197;-87
2024/02/03 07:52:10;;;;;;;329.07;87.77;;;2.80;99.90;5.30;97324.00;;;;4952605;28;20448;-87
2024/02/03 07:54:58;;;;;;;429.03;183.10;;;2.90;99.90;5.50;97328.00;;;;4891302;28;20547;-87
2024/02/03 07:57:48;;;;;;;335.50;95.43;;;3.00;99.90;5.70;97314.00;;;;4958269;28;20840;-87
2024/02/03 08:00:39;;;;;;;335.23;91.90;;;3.10;99.90;5.60;97307.00;;;;4940872;28;20450;-88
2024/02/03 08:03:28;;;;;;;340.13;99.93;;;3.10;99.90;6.10;97325.00;;;;4938257;28;20518;-88
2024/02/03 08:06:17;;;;;;;333.00;88.77;;;3.30;99.90;6.10;97337.00;;;;4935195;28;20924;-86
2024/02/03 08:09:08;;;;;;;424.80;189.43;;;3.40;99.90;5.90;97331.00;;;;4887109;28;20455;-87
2024/02/03 08:11:59;;;;;;;381.50;137.87;;;3.50;99.90;6.30;97338.00;;;;4892426;28;21430;-85
2024/02/03 08:14:48;;;;;;;436.17;181.63;;;3.70;99.90;6.50;97328.00;;;;4889909;28;20530;-86
2024/02/03 08:17:39;;;;;;;392.67;142.80;;;3.80;99.90;5.50;97320.00;;;;4886966;28;20584;-85
2024/02/03 08:20:28;;;;;;;438.83;185.17;;;3.80;99.90;6.80;97328.00;;;;4889458;28;20444;-87
2024/02/03 08:23:17;;;;;;;339.37;96.77;;;4.00;99.90;7.10;97319.00;;;;4902526;28;20456;-87
2024/02/03 08:26:06;;;;;;;327.47;89.20;;;4.10;99.90;7.70;97330.00;;;;4947621;28;20451;-87
2024/02/03 08:28:55;;;;;;;330.07;87.60;;;4.30;99.90;7.70;97323.00;;;;4951527;28;20442;-88
2024/02/03 08:31:44;;;;;;;331.97;94.03;;;4.60;99.90;7.90;97331.00;;;;4970175;28;20458;-89
2024/02/03 08:34:34;;;;;;;333.93;87.83;;;5.40;99.90;8.30;97330.00;;;;4962603;28;20497;-88
2024/02/03 08:37:23;;;;;;;338.13;96.00;;;5.00;99.90;7.20;97323.00;;;;4948529;28;20831;-87
2024/02/03 08:40:13;;;;;;;341.87;109.03;;;5.00;99.90;8.20;97337.00;;;;4942524;28;20432;-87
2024/02/03 08:43:02;;;;;;;343.30;105.57;;;5.20;99.90;8.00;97341.00;;;;4940194;28;20528;-87
2024/02/03 08:45:51;;;;;;;335.87;105.20;;;5.30;99.90;8.00;97343.00;;;;4941763;28;20436;-87
2024/02/03 08:48:40;;;;;;;343.27;116.70;;;5.40;99.90;8.50;97331.00;;;;4947207;28;20448;-87
2024/02/03 08:51:30;;;;;;;347.80;110.97;;;5.50;99.90;8.80;97332.00;;;;4941710;28;20466;-87
2024/02/03 08:54:19;;;;;;;342.00;102.37;;;5.70;99.90;8.20;97327.00;;;;4943789;28;20861;-87
2024/02/03 08:57:09;;;;;;;333.80;98.63;;;5.80;99.90;9.00;97323.00;;;;4951447;28;20425;-88
2024/02/03 08:59:58;;;;;;;336.80;108.57;;;5.90;99.90;9.40;97324.00;;;;4950109;28;20204;-88
2024/02/03 09:02:46;;;;;;;335.83;86.87;;;6.10;99.90;9.90;97331.00;;;;4948977;28;20225;-87
2024/02/03 09:05:36;;;;;;;343.93;105.13;;;6.30;99.90;10.30;97324.00;;;;4939901;28;20578;-88
2024/02/03 09:08:26;;;;;;;351.93;102.93;;;6.60;99.90;10.60;97313.00;;;;4944626;28;20200;-89
2024/02/03 09:11:15;;;;;;;348.40;107.40;;;7.00;99.90;10.40;97320.00;;;;4943911;28;20664;-87
2024/02/03 09:14:04;;;;;;;339.10;96.27;;;7.30;99.90;11.00;97309.00;;;;4953797;28;20815;-89
2024/02/03 09:16:53;;;;;;;335.83;92.60;;;7.60;99.90;11.50;97332.00;;;;4940069;28;20219;-88
2024/02/03 09:19:42;;;;;;;347.60;101.57;;;7.90;99.90;11.80;97326.00;;;;4937778;28;20200;-88
2024/02/03 09:22:31;;;;;;;346.50;102.77;;;8.20;99.90;12.00;97324.00;;;;4941213;28;20747;-88
2024/02/03 09:25:21;;;;;;;446.27;194.57;;;8.40;99.90;12.20;97325.00;;;;4954998;28;20202;-89
2024/02/03 09:28:10;;;;;;;348.53;107.07;;;8.70;99.90;12.50;97320.00;;;;4954612;28;20211;-87
2024/02/03 09:31:00;;;;;;;341.77;104.83;;;8.90;99.90;12.60;97329.00;;;;4938905;28;20232;-91
2024/02/03 09:33:49;;;;;;;348.73;111.80;;;9.20;99.90;12.50;97332.00;;;;4941424;28;20231;-88
2024/02/03 09:36:41;;;;;;;351.33;111.40;;;9.40;99.90;13.10;97332.00;;;;4936427;28;20232;-88
2024/02/03 09:39:33;;;;;;;349.33;109.37;;;9.60;99.90;13.40;97339.00;;;;4943820;28;20216;-88
2024/02/03 09:42:24;;;;;;;358.07;115.83;;;9.80;99.90;13.60;97339.00;;;;4941858;28;20232;-88
2024/02/03 09:45:13;;;;;;;352.10;115.53;;;10.10;99.90;13.80;97336.00;;;;4938599;28;20207;-88
2024/02/03 09:48:02;;;;;;;352.97;118.07;;;10.30;99.90;14.00;97344.00;;;;4968046;28;20208;-88
2024/02/03 09:50:52;;;;;;;433.20;200.20;;;10.50;99.90;14.40;97351.00;;;;4880406;28;20213;-88
2024/02/03 09:53:44;;;;;;;444.77;206.53;;;10.70;99.90;14.80;97344.00;;;;4881625;28;21292;-88
2024/02/03 09:56:35;;;;;;;467.87;237.47;;;11.00;99.90;15.20;97343.00;;;;4878262;28;20226;-87
2024/02/03 09:59:27;;;;;;;429.47;187.23;;;;;15.10;97337.00;;;;4885203;28;20200;-87
2024/02/03 10:02:19;;;;;;;489.37;253.23;;;;;15.60;97334.00;;;;4878764;28;20273;-88
2024/02/03 10:05:09;;;;;;;389.43;160.57;;;;;16.30;97339.00;;;;4869084;28;20216;-88
2024/02/03 10:08:03;;;;;;;485.67;246.00;;;;;16.50;97333.00;;;;4876740;28;20685;-88
2024/02/03 10:10:54;;;;;;;475.60;238.27;;;;;16.60;97335.00;;;;4868415;28;20212;-87
2024/02/03 10:13:43;;;;;;;486.53;278.77;;;;;17.10;97335.00;;;;4879573;28;20239;-87
2024/02/03 10:16:46;;;;;;;482.83;264.07;;;;;17.40;97338.00;;;;4878151;28;20339;-87
2024/02/03 10:19:35;;;;;;;510.30;306.83;;;;;17.70;97346.00;;;;4892621;28;20264;-87
2024/02/03 10:22:27;;;;;;;497.57;307.40;;;;;18.10;97345.00;;;;4884063;28;20224;-89
2024/02/03 10:25:16;;;;;;;508.17;289.53;;;;;18.50;97345.00;;;;4875956;28;20695;-88
2024/02/03 10:28:08;;;;;;;493.10;284.20;;;;;18.70;97356.00;;;;4879867;28;20554;-88
2024/02/03 10:31:06;;;;;;;502.37;282.33;;;;;18.50;97347.00;;;;4876573;28;20221;-87
2024/02/03 10:33:57;;;;;;;482.10;271.33;;;;;19.20;97319.00;;;;4875675;28;20231;-88
2024/02/03 10:36:46;;;;;;;482.97;286.63;;;;;19.40;97335.00;;;;4883898;28;20212;-87
2024/02/03 10:39:38;;;;;;;430.50;241.03;;;;;19.50;97337.00;;;;4880727;28;20212;-88
2024/02/03 10:42:30;;;;;;;445.63;308.47;;;;;20.10;97342.00;;;;4875591;28;20235;-89
2024/02/03 10:45:21;;;;;;;420.47;262.80;;;;;21.10;97337.00;;;;4874194;28;21589;-89
2024/02/03 10:48:13;;;;;;;502.70;337.83;;;;;21.30;97332.00;;;;4875281;28;20273;-88
2024/02/03 10:51:11;;;;;;;504.67;350.40;;;;;20.90;97313.00;;;;4876914;28;20215;-85
2024/02/03 10:54:02;;;;;;;437.53;302.20;;;;;22.20;97310.00;;;;4867345;28;20788;-86
2024/02/03 10:56:52;;;;;;;512.53;388.00;;;;;22.10;97301.00;;;;4879321;28;20299;-90
2024/02/03 10:59:41;;;;;;;448.83;335.37;;;;;22.60;97300.00;;;;4876429;28;20235;-89
2024/02/03 11:02:31;;;;;;;405.23;332.30;;;;;22.90;97316.00;;;;4891708;28;20236;-87
2024/02/03 11:05:24;;;;;;;410.33;350.37;;;;;22.40;97302.00;;;;4960056;28;20204;-89
2024/02/03 11:08:15;;;;;;;410.07;356.43;;;;;22.60;97298.00;;;;4952926;28;20346;-89
2024/02/03 11:11:04;;;;;;;396.40;352.47;;;;;21.30;97312.00;;;;4956550;28;20209;-87
2024/02/03 11:13:54;;;;;;;403.80;359.10;;;;;23.00;97316.00;;;;4944261;28;20231;-87
2024/02/03 11:16:44;;;;;;;405.30;353.37;;;;;23.80;97319.00;;;;4947952;28;20624;-88
2024/02/03 11:19:36;;;;;;;424.93;374.60;;;;;22.00;97308.00;;;;4944807;28;20208;-88
2024/02/03 11:22:27;;;;;;;532.23;450.20;;;;;23.00;97294.00;;;;4933452;22;20254;-70
2024/02/03 11:25:19;;;;;;;533.43;456.63;;;;;24.10;97305.00;;;;4913790;28;20699;-71
2024/02/03 11:28:08;;;;;;;533.23;464.10;;;;;23.70;97304.00;;;;4909243;28;20233;-70
2024/02/03 11:31:01;;;;;;;541.47;471.27;;;;;22.90;97287.00;;;;4898481;28;21390;-70
2024/02/03 11:33:50;;;;;;;522.67;465.07;;;;;23.10;97279.00;;;;4898424;28;21039;-70
2024/02/03 11:36:40;;;;;;;548.33;486.53;;;;;23.70;97285.00;;;;4900411;28;20223;-71
2024/02/03 11:39:31;;;;;;;564.13;499.37;;;;;24.00;97295.00;;;;4893318;28;20293;-71
2024/02/03 11:42:21;;;;;;;560.23;497.87;;;;;24.30;97294.00;;;;4898600;28;20333;-71
2024/02/03 11:45:14;;;;;;;545.73;487.07;;;;;22.70;97277.00;;;;4898059;28;22988;-70
2024/02/03 11:48:05;;;;;;;553.43;492.77;;;;;22.30;97291.00;;;;4896865;28;20243;-69
2024/02/03 11:50:54;;;;;;;506.97;451.37;;;;;22.00;97280.00;;;;4894573;28;20232;-69
2024/02/03 11:53:44;;;;;;;536.03;458.20;;;;;20.80;97275.00;;;;4896989;28;20758;-68
2024/02/03 11:56:33;;;;;;;469.70;406.33;;;;;20.30;97265.00;;;;4891987;28;20235;-68
2024/02/03 11:59:28;;;;;;;550.90;442.10;;;;;20.80;97272.00;;;;4896632;28;20691;-69
2024/02/03 12:02:18;;;;;;;530.23;416.93;;;;;21.30;97262.00;;;;4896804;28;20219;-68
2024/02/03 12:05:07;;;;;;;523.57;408.87;;;;;21.50;97262.00;;;;4895798;28;20199;-68
2024/02/03 12:07:58;;;;;;;407.67;331.93;;;;;19.90;97263.00;;;;4916006;28;20264;-66
2024/02/03 12:10:47;;;;;;;466.93;363.87;;;;;19.70;97256.00;;;;4950974;28;20577;-67
2024/02/03 12:13:37;;;;;;;395.00;313.80;;;;;21.40;97264.00;;;;4962222;28;20218;-67
2024/02/03 12:16:30;;;;;;;417.10;319.73;;;;;20.60;97264.00;;;;4956465;28;20251;-68
2024/02/03 12:19:20;;;;;;;400.70;310.83;;;;;20.40;97245.00;;;;4960732;28;20238;-68
2024/02/03 12:22:09;;;;;;;396.37;299.07;;;;;21.30;97267.00;;;;4962241;28;20196;-68
2024/02/03 12:24:58;;;;;;;398.57;299.57;;;;;21.50;97253.00;;;;4966450;28;20226;-68
2024/02/03 12:27:47;;;;;;;400.50;307.20;;;;;21.50;97246.00;;;;4952333;28;20208;-69
2024/02/03 12:30:36;;;;;;;410.80;310.63;;;;;20.50;97223.00;;;;4962715;28;20269;-70
2024/02/03 12:33:27;;;;;;;423.00;314.23;;;;;20.20;97226.00;;;;4952142;28;20212;-68